地図

経路データ

SID SEASON NUMBER BASIN SUBBASIN NAME ISO_TIME NATURE LAT LON WMO_WIND WMO_PRES WMO_AGENCY TRACK_TYPE DIST2LAND LANDFALL IFLAG USA_AGENCY USA_ATCF_ID USA_LAT USA_LON USA_RECORD USA_STATUS USA_WIND USA_PRES USA_SSHS USA_R34_NE USA_R34_SE USA_R34_SW USA_R34_NW USA_R50_NE USA_R50_SE USA_R50_SW USA_R50_NW USA_R64_NE USA_R64_SE USA_R64_SW USA_R64_NW USA_POCI USA_ROCI USA_RMW USA_EYE TOKYO_LAT TOKYO_LON TOKYO_GRADE TOKYO_WIND TOKYO_PRES TOKYO_R50_DIR TOKYO_R50_LONG TOKYO_R50_SHORT TOKYO_R30_DIR TOKYO_R30_LONG TOKYO_R30_SHORT TOKYO_LAND CMA_LAT CMA_LON CMA_CAT CMA_WIND CMA_PRES HKO_LAT HKO_LON HKO_CAT HKO_WIND HKO_PRES NEWDELHI_LAT NEWDELHI_LON NEWDELHI_GRADE NEWDELHI_WIND NEWDELHI_PRES NEWDELHI_CI NEWDELHI_DP NEWDELHI_POCI REUNION_LAT REUNION_LON REUNION_TYPE REUNION_WIND REUNION_PRES REUNION_TNUM REUNION_CI REUNION_RMW REUNION_R34_NE REUNION_R34_SE REUNION_R34_SW REUNION_R34_NW REUNION_R50_NE REUNION_R50_SE REUNION_R50_SW REUNION_R50_NW REUNION_R64_NE REUNION_R64_SE REUNION_R64_SW REUNION_R64_NW BOM_LAT BOM_LON BOM_TYPE BOM_WIND BOM_PRES BOM_TNUM BOM_CI BOM_RMW BOM_R34_NE BOM_R34_SE BOM_R34_SW BOM_R34_NW BOM_R50_NE BOM_R50_SE BOM_R50_SW BOM_R50_NW BOM_R64_NE BOM_R64_SE BOM_R64_SW BOM_R64_NW BOM_ROCI BOM_POCI BOM_EYE BOM_POS_METHOD BOM_PRES_METHOD NADI_LAT NADI_LON NADI_CAT NADI_WIND NADI_PRES WELLINGTON_LAT WELLINGTON_LON WELLINGTON_WIND WELLINGTON_PRES DS824_LAT DS824_LON DS824_STAGE DS824_WIND DS824_PRES TD9636_LAT TD9636_LON TD9636_STAGE TD9636_WIND TD9636_PRES TD9635_LAT TD9635_LON TD9635_WIND TD9635_PRES TD9635_ROCI NEUMANN_LAT NEUMANN_LON NEUMANN_CLASS NEUMANN_WIND NEUMANN_PRES MLC_LAT MLC_LON MLC_CLASS MLC_WIND MLC_PRES USA_GUST BOM_GUST BOM_GUST_PER REUNION_GUST REUNION_GUST_PER USA_SEAHGT USA_SEARAD_NE USA_SEARAD_SE USA_SEARAD_SW USA_SEARAD_NW STORM_SPEED STORM_DIR
1898297N15123 1898 53 WP MM NOT_NAMED 1898-10-23 16:00:00 NR 15.4000 123.200 main 138 131 __________O___ -1 15.4000 123.200 7 3 267
1898297N15123 1898 53 WP MM NOT_NAMED 1898-10-23 18:00:00 NR 15.3946 123.096 main 131 116 __________P___ -1 15.3946 123.096 7 3 267
1898297N15123 1898 53 WP MM NOT_NAMED 1898-10-23 21:00:00 NR 15.3885 122.936 main 116 108 __________P___ -1 15.3885 122.936 7 3 269
1898297N15123 1898 53 WP MM NOT_NAMED 1898-10-24 00:00:00 NR 15.3876 122.763 main 108 92 __________P___ -1 15.3876 122.763 7 4 271
1898297N15123 1898 53 WP MM NOT_NAMED 1898-10-24 03:00:00 NR 15.3951 122.570 main 92 85 __________P___ -1 15.3951 122.570 7 4 273
1898297N15123 1898 53 WP MM NOT_NAMED 1898-10-24 04:00:00 NR 15.4000 122.500 main 85 79 __________O___ -1 15.4000 122.500 3 4 275
1898297N15123 1898 53 WP MM NOT_NAMED 1898-10-24 06:00:00 NR 15.4141 122.350 main 79 63 __________P___ -1 15.4141 122.350 3 5 277
1898297N15123 1898 53 WP MM NOT_NAMED 1898-10-24 09:00:00 NR 15.4476 122.107 main 63 30 __________P___ -1 15.4476 122.107 3 5 280
1898297N15123 1898 53 WP MM NOT_NAMED 1898-10-24 12:00:00 NR 15.4988 121.850 main 30 10 __________P___ -1 15.4988 121.850 3 5 284
1898297N15123 1898 53 WP MM NOT_NAMED 1898-10-24 15:00:00 NR 15.5708 121.587 main 10 0 __________P___ -1 15.5708 121.587 3 5 287
1898297N15123 1898 53 WP MM NOT_NAMED 1898-10-24 16:00:00 NR 15.6000 121.500 main 0 0 __________O___ -1 15.6000 121.500 4 5 291
1898297N15123 1898 53 WP MM NOT_NAMED 1898-10-24 18:00:00 NR 15.6609 121.336 main 0 0 __________P___ -1 15.6609 121.336 4 5 293
1898297N15123 1898 53 WP MM NOT_NAMED 1898-10-24 21:00:00 NR 15.7710 121.090 main 0 0 __________P___ -1 15.7710 121.090 4 5 297
1898297N15123 1898 53 WP MM NOT_NAMED 1898-10-25 00:00:00 NR 15.9011 120.841 main 0 0 __________P___ -1 15.9011 120.841 4 6 300
1898297N15123 1898 53 WP MM NOT_NAMED 1898-10-25 03:00:00 NR 16.0479 120.587 main 0 0 __________P___ -1 16.0479 120.587 4 6 301
1898297N15123 1898 53 WP MM NOT_NAMED 1898-10-25 04:00:00 NR 16.1000 120.500 main 0 0 __________O___ -1 16.1000 120.500 4 6 300
1898297N15123 1898 53 WP MM NOT_NAMED 1898-10-25 06:00:00 NR 16.2000 120.317 main 10 10 __________P___ -1 16.2000 120.317 4 6 300
1898297N15123 1898 53 WP MM NOT_NAMED 1898-10-25 09:00:00 NR 16.3625 120.036 main 15 11 __________P___ -1 16.3625 120.036 4 6 302
1898297N15123 1898 53 WP MM NOT_NAMED 1898-10-25 12:00:00 NR 16.5400 119.756 main 22 35 __________P___ -1 16.5400 119.756 4 6 305
1898297N15123 1898 53 WP MM NOT_NAMED 1898-10-25 15:00:00 NR 16.7325 119.486 main 55 55 __________P___ -1 16.7325 119.486 4 6 307
1898297N15123 1898 53 WP MM NOT_NAMED 1898-10-25 16:00:00 NR 16.8000 119.400 main 70 70 __________O___ -1 16.8000 119.400 4 6 310
1898297N15123 1898 53 WP MM NOT_NAMED 1898-10-25 18:00:00 NR 16.9280 119.238 main 92 92 __________P___ -1 16.9280 119.238 4 6 311
1898297N15123 1898 53 WP MM NOT_NAMED 1898-10-25 21:00:00 NR 17.1324 119.009 main 123 123 __________P___ -1 17.1324 119.009 4 6 315
1898297N15123 1898 53 WP MM NOT_NAMED 1898-10-26 00:00:00 NR 17.3574 118.789 main 160 160 __________P___ -1 17.3574 118.789 4 6 319
1898297N15123 1898 53 WP MM NOT_NAMED 1898-10-26 03:00:00 NR 17.6091 118.572 main 180 180 __________P___ -1 17.6091 118.572 4 7 321
1898297N15123 1898 53 WP MM NOT_NAMED 1898-10-26 04:00:00 NR 17.7000 118.500 main 191 191 __________O___ -1 17.7000 118.500 4 7 323
1898297N15123 1898 53 WP MM NOT_NAMED 1898-10-26 06:00:00 NR 17.8938 118.345 main 214 214 __________P___ -1 17.8938 118.345 4 8 324
1898297N15123 1898 53 WP MM NOT_NAMED 1898-10-26 09:00:00 NR 18.2098 118.112 main 242 242 __________P___ -1 18.2098 118.112 4 8 326
1898297N15123 1898 53 WP MM NOT_NAMED 1898-10-26 12:00:00 NR 18.5450 117.884 main 273 277 __________P___ -1 18.5450 117.884 4 8 328
1898297N15123 1898 53 WP MM NOT_NAMED 1898-10-26 15:00:00 NR 18.8867 117.668 main 308 308 __________P___ -1 18.8867 117.668 4 8 330
1898297N15123 1898 53 WP MM NOT_NAMED 1898-10-26 16:00:00 NR 19.0000 117.600 main 321 321 __________O___ -1 19.0000 117.600 4 8 331
1898297N15123 1898 53 WP MM NOT_NAMED 1898-10-26 18:00:00 NR 19.2297 117.461 main 338 338 __________P___ -1 19.2297 117.461 4 8 331
1898297N15123 1898 53 WP MM NOT_NAMED 1898-10-26 21:00:00 NR 19.5747 117.266 main 372 340 __________P___ -1 19.5747 117.266 4 8 333
1898297N15123 1898 53 WP MM NOT_NAMED 1898-10-27 00:00:00 NR 19.9061 117.091 main 340 301 __________P___ -1 19.9061 117.091 4 7 334
1898297N15123 1898 53 WP MM NOT_NAMED 1898-10-27 03:00:00 NR 20.2084 116.943 main 301 291 __________P___ -1 20.2084 116.943 4 7 335
1898297N15123 1898 53 WP MM NOT_NAMED 1898-10-27 04:00:00 NR 20.3000 116.900 main 291 266 __________O___ -1 20.3000 116.900 4 6 338
1898297N15123 1898 53 WP MM NOT_NAMED 1898-10-27 06:00:00 NR 20.4618 116.829 main 266 242 __________P___ -1 20.4618 116.829 4 5 339
1898297N15123 1898 53 WP MM NOT_NAMED 1898-10-27 09:00:00 NR 20.6730 116.749 main 242 221 __________P___ -1 20.6730 116.749 4 4 341
1898297N15123 1898 53 WP MM NOT_NAMED 1898-10-27 12:00:00 NR 20.8604 116.686 main 221 207 __________P___ -1 20.8604 116.686 4 4 342
1898297N15123 1898 53 WP MM NOT_NAMED 1898-10-27 15:00:00 NR 21.0394 116.623 main 207 196 __________P___ -1 21.0394 116.623 4 4 341
1898297N15123 1898 53 WP MM NOT_NAMED 1898-10-27 16:00:00 NR 21.1000 116.600 main 196 182 __________O___ -1 21.1000 116.600 4 4 340
1898297N15123 1898 53 WP MM NOT_NAMED 1898-10-27 18:00:00 NR 21.2249 116.547 main 182 161 __________P___ -1 21.2249 116.547 4 4 337
1898297N15123 1898 53 WP MM NOT_NAMED 1898-10-27 21:00:00 NR 21.4206 116.454 main 161 133 __________P___ -1 21.4206 116.454 4 4 335
1898297N15123 1898 53 WP MM NOT_NAMED 1898-10-28 00:00:00 NR 21.6236 116.350 main 133 108 __________P___ -1 21.6236 116.350 4 5 334
1898297N15123 1898 53 WP MM NOT_NAMED 1898-10-28 03:00:00 NR 21.8306 116.238 main 108 98 __________P___ -1 21.8306 116.238 4 5 333
1898297N15123 1898 53 WP MM NOT_NAMED 1898-10-28 04:00:00 NR 21.9000 116.200 main 98 __________O___ -1 21.9000 116.200 7 5 331

デジタル台風データ・検索

IBTrACS Databaseについて

本データベースは、米国NOAAが公開する1842年以降の世界の熱帯低気圧のベストトラックデータアーカイブInternational Best Track Archive for Climate Stewardship (IBTrACS)を、ウェブで閲覧しやすい形式に変換したものです。

最終更新日:2021-12-06